Time;durP1;ratioP1;P1;durP2;ratioP2;P2;SDS_P1;SDS_P2;PMS_P1;PMS_P2;Temp;Humidity;BMP_temperature;BMP_pressure;BME280_temperature;BME280_humidity;BME280_pressure;Samples;Min_cycle;Max_cycle;Signal;HPM_P1;HPM_P2
2023/07/04 00:01:24;;;;;;;21.20;12.50;;;;;;;13.52;86.22;98537.59;137601;1272;22218;-82
2023/07/04 00:04:29;;;;;;;20.80;13.70;;;;;;;13.50;86.31;98541.63;137639;1273;22201;-82
2023/07/04 00:07:34;;;;;;;36.40;14.30;;;;;;;13.52;86.59;98542.48;137591;1272;22187;-80
2023/07/04 00:10:36;;;;;;;59.80;17.00;;;;;;;13.54;86.67;98541.60;137645;1273;22633;-81
2023/07/04 00:13:39;;;;;;;19.70;13.10;;;;;;;13.51;86.74;98530.77;137441;1273;22584;-81
2023/07/04 00:16:41;;;;;;;19.90;12.90;;;;;;;13.48;86.71;98538.83;137625;1273;22162;-81
2023/07/04 00:19:44;;;;;;;24.40;13.70;;;;;;;13.49;86.94;98542.84;137651;1273;22273;-81
2023/07/04 00:22:47;;;;;;;21.90;13.20;;;;;;;13.49;87.10;98540.58;137571;1273;22202;-81
2023/07/04 00:25:49;;;;;;;19.80;12.60;;;;;;;13.41;87.10;98541.14;137572;1273;22395;-81
2023/07/04 00:28:52;;;;;;;23.40;14.00;;;;;;;13.35;87.29;98543.78;137592;1272;22235;-80
2023/07/04 00:31:54;;;;;;;28.20;14.60;;;;;;;13.34;87.50;98548.15;137381;1273;22438;-82
2023/07/04 00:34:57;;;;;;;21.20;14.80;;;;;;;13.35;87.62;98551.29;137611;1273;22711;-81
2023/07/04 00:37:59;;;;;;;990.90;93.70;;;;;;;13.34;87.89;98550.60;137574;1266;22174;-82
2023/07/04 00:41:02;;;;;;;190.70;25.30;;;;;;;13.35;88.27;98549.36;137667;1273;22349;-82
2023/07/04 00:44:09;;;;;;;24.60;14.80;;;;;;;13.34;88.19;98550.95;137629;1273;22227;-81
2023/07/04 00:47:12;;;;;;;20.00;13.30;;;;;;;13.35;88.37;98551.13;137560;1273;22406;-82
2023/07/04 00:50:19;;;;;;;21.50;13.50;;;;;;;13.39;88.52;98553.02;137641;1273;22267;-82
2023/07/04 00:53:21;;;;;;;21.00;13.00;;;;;;;13.43;88.53;98551.45;137591;1273;22262;-81
2023/07/04 00:56:25;;;;;;;24.90;13.50;;;;;;;13.47;88.44;98556.31;137658;1273;22154;-80
2023/07/04 00:59:27;;;;;;;20.50;13.00;;;;;;;13.56;89.01;98554.88;137587;1272;22242;-81
2023/07/04 01:02:30;;;;;;;151.80;22.40;;;;;;;13.63;88.68;98554.66;137680;1266;22239;-83
2023/07/04 01:05:33;;;;;;;24.70;14.00;;;;;;;13.70;88.78;98553.76;137537;1273;22538;-82
2023/07/04 01:08:35;;;;;;;120.60;19.80;;;;;;;13.74;88.54;98558.64;137671;1273;22206;-82
2023/07/04 01:11:42;;;;;;;19.10;14.80;;;;;;;13.75;88.56;98557.58;137449;1273;22655;-82
2023/07/04 01:14:47;;;;;;;245.80;28.00;;;;;;;13.78;88.66;98562.27;137618;1273;22373;-82
2023/07/04 01:17:51;;;;;;;23.00;15.20;;;;;;;13.84;88.69;98570.64;137533;1273;22331;-82
2023/07/04 01:20:53;;;;;;;23.90;15.00;;;;;;;13.91;88.87;98566.09;137312;1273;22611;-82
2023/07/04 01:23:56;;;;;;;24.50;14.40;;;;;;;13.94;88.96;98561.86;137379;1272;22598;-82
2023/07/04 01:26:59;;;;;;;24.60;14.50;;;;;;;13.95;88.69;98563.62;137244;1272;22540;-82
2023/07/04 01:30:04;;;;;;;38.80;15.40;;;;;;;13.97;88.83;98569.55;137111;1272;22239;-81
2023/07/04 01:33:08;;;;;;;43.60;16.30;;;;;;;14.03;89.02;98573.89;137585;1273;22168;-81
2023/07/04 01:36:11;;;;;;;22.70;14.70;;;;;;;14.10;89.07;98577.86;137482;1272;22133;-81
2023/07/04 01:39:15;;;;;;;22.30;14.80;;;;;;;14.16;89.10;98580.10;137570;1273;22600;-81
2023/07/04 01:42:18;;;;;;;102.10;19.40;;;;;;;14.19;88.86;98577.27;137479;1273;22219;-82
2023/07/04 01:45:21;;;;;;;22.90;14.50;;;;;;;14.20;88.78;98570.45;137525;1272;22765;-82
2023/07/04 01:48:24;;;;;;;22.90;15.80;;;;;;;14.19;88.81;98575.17;137581;1273;22615;-81
2023/07/04 01:51:26;;;;;;;26.50;15.90;;;;;;;14.21;88.99;98579.55;137522;1269;22527;-82
2023/07/04 01:54:30;;;;;;;31.30;16.30;;;;;;;14.20;88.99;98567.30;137592;1273;22608;-82
2023/07/04 01:57:32;;;;;;;27.90;15.40;;;;;;;14.17;88.68;98568.37;137624;1272;22947;-82
2023/07/04 02:00:35;;;;;;;25.00;15.70;;;;;;;14.15;88.80;98577.66;137535;1272;22648;-81
2023/07/04 02:03:38;;;;;;;24.30;16.20;;;;;;;14.19;88.91;98581.83;137651;1272;22464;-81
2023/07/04 02:06:40;;;;;;;26.60;15.50;;;;;;;14.19;88.59;98585.51;137571;1272;22983;-81
2023/07/04 02:09:43;;;;;;;131.90;24.30;;;;;;;14.16;88.61;98591.65;137554;1272;22289;-82
2023/07/04 02:12:45;;;;;;;28.40;15.80;;;;;;;14.15;88.80;98585.19;137441;1269;22244;-82
2023/07/04 02:15:48;;;;;;;65.10;18.20;;;;;;;14.13;88.72;98572.06;137555;1272;22535;-82
2023/07/04 02:18:51;;;;;;;574.80;68.70;;;;;;;14.12;88.90;98566.65;137236;1272;22208;-81
2023/07/04 02:21:53;;;;;;;119.40;23.30;;;;;;;14.15;89.28;98564.70;137517;1273;23021;-84
2023/07/04 02:24:55;;;;;;;26.10;14.80;;;;;;;14.19;89.47;98567.83;137666;1272;22866;-82
2023/07/04 02:27:58;;;;;;;19.50;13.60;;;;;;;14.22;89.49;98570.25;137615;1273;22595;-81
2023/07/04 02:31:01;;;;;;;53.00;15.60;;;;;;;14.25;89.75;98571.81;137651;1273;22711;-82
2023/07/04 02:34:03;;;;;;;443.40;38.80;;;;;;;14.28;89.74;98576.69;137633;1272;22766;-82
2023/07/04 02:37:06;;;;;;;31.50;14.60;;;;;;;14.32;89.63;98576.66;137585;1272;22651;-81
2023/07/04 02:40:08;;;;;;;24.20;13.40;;;;;;;14.37;89.77;98576.27;137599;1272;22720;-81
2023/07/04 02:43:11;;;;;;;21.80;13.70;;;;;;;14.37;89.77;98575.22;137619;1272;22566;-82
2023/07/04 02:46:13;;;;;;;72.90;18.40;;;;;;;14.36;89.51;98576.98;137606;1272;22317;-81
2023/07/04 02:49:16;;;;;;;22.50;13.60;;;;;;;14.36;89.56;98578.20;137556;1269;22254;-81
2023/07/04 02:52:18;;;;;;;25.90;13.40;;;;;;;14.38;89.83;98584.49;137541;1272;22222;-82
2023/07/04 02:55:20;;;;;;;24.20;15.30;;;;;;;14.43;89.85;98578.70;137444;1273;23104;-81
2023/07/04 02:58:23;;;;;;;81.90;18.40;;;;;;;14.49;89.90;98564.66;137616;1272;22763;-80
2023/07/04 03:01:26;;;;;;;23.10;14.30;;;;;;;14.53;89.73;98563.73;137486;1272;22439;-81
2023/07/04 03:04:28;;;;;;;25.10;15.00;;;;;;;14.58;89.66;98570.70;137617;1273;22275;-80
2023/07/04 03:07:31;;;;;;;20.30;13.80;;;;;;;14.62;89.58;98567.34;137523;1272;22407;-81
2023/07/04 03:10:40;;;;;;;56.60;15.40;;;;;;;14.66;89.52;98570.80;137513;1272;22221;-83
2023/07/04 03:13:52;;;;;;;203.80;25.70;;;;;;;14.71;89.70;98572.88;137395;1273;22671;-81
2023/07/04 03:16:54;;;;;;;21.60;13.20;;;;;;;14.75;89.75;98570.94;137465;1272;22411;-81
2023/07/04 03:19:57;;;;;;;19.10;14.20;;;;;;;14.77;89.83;98565.14;137631;1270;22171;-82
2023/07/04 03:22:59;;;;;;;23.20;14.40;;;;;;;14.79;89.84;98567.05;137573;1272;22336;-82
2023/07/04 03:26:03;;;;;;;20.20;13.80;;;;;;;14.83;89.83;98569.64;137311;1272;23255;-82
2023/07/04 03:29:07;;;;;;;22.80;15.10;;;;;;;14.87;90.05;98575.55;137214;1272;22585;-82
2023/07/04 03:32:17;;;;;;;28.20;14.20;;;;;;;14.95;90.16;98572.14;137593;1272;22530;-82
2023/07/04 03:35:20;;;;;;;24.20;13.60;;;;;;;15.03;90.07;98568.91;137133;1272;22552;-83
2023/07/04 03:38:23;;;;;;;32.10;14.10;;;;;;;15.10;90.06;98567.27;137300;1272;22538;-83
2023/07/04 03:41:26;;;;;;;28.80;14.10;;;;;;;15.18;90.04;98565.23;137327;1272;22268;-81
2023/07/04 03:44:31;;;;;;;20.40;13.60;;;;;;;15.25;89.86;98557.63;137619;1272;22257;-82
2023/07/04 03:47:34;;;;;;;17.60;13.80;;;;;;;15.32;89.91;98560.53;137424;1266;22239;-81
2023/07/04 03:50:45;;;;;;;21.80;14.10;;;;;;;15.41;89.72;98562.52;137518;1272;22202;-83
2023/07/04 03:53:48;;;;;;;24.80;15.00;;;;;;;15.50;89.55;98566.79;137617;1272;22216;-82
2023/07/04 03:56:51;;;;;;;28.30;14.20;;;;;;;15.62;89.50;98568.98;137620;1272;22271;-81
2023/07/04 03:59:54;;;;;;;17.50;13.30;;;;;;;15.69;89.32;98572.94;137569;1273;22542;-81
2023/07/04 04:02:58;;;;;;;20.70;14.10;;;;;;;15.77;89.21;98574.23;137525;1272;23013;-81
2023/07/04 04:06:02;;;;;;;;;;;;;;;15.87;89.15;98577.79;137523;1272;22569;-81
2023/07/04 04:09:05;;;;;;;210.90;26.70;;;;;;;15.92;88.67;98576.13;137583;1269;22208;-81
2023/07/04 04:12:11;;;;;;;24.00;14.40;;;;;;;15.99;88.59;98576.39;137561;1269;22451;-82
2023/07/04 04:15:17;;;;;;;105.90;19.90;;;;;;;16.11;88.67;98575.34;137543;1272;22821;-81
2023/07/04 04:18:21;;;;;;;24.80;14.50;;;;;;;16.24;88.35;98583.20;137295;1272;22205;-81
2023/07/04 04:21:24;;;;;;;27.30;14.50;;;;;;;16.36;88.24;98584.78;137542;1273;22308;-80
2023/07/04 04:24:26;;;;;;;23.50;15.20;;;;;;;16.54;87.92;98580.67;137574;1273;22214;-81
2023/07/04 04:27:30;;;;;;;20.50;14.00;;;;;;;16.71;87.41;98583.59;137605;1272;22330;-81
2023/07/04 04:30:33;;;;;;;26.90;15.50;;;;;;;16.87;86.87;98591.04;137598;1273;22202;-81
2023/07/04 04:33:36;;;;;;;31.70;15.70;;;;;;;17.05;86.36;98599.16;137545;1269;22233;-82
2023/07/04 04:36:41;;;;;;;35.20;16.90;;;;;;;17.21;85.54;98603.78;137526;1273;22399;-82
2023/07/04 04:43:17;;;;;;;29.50;17.10;;;;;;;17.42;85.08;98612.05;137372;1272;24202;-81
2023/07/04 04:46:20;;;;;;;64.50;17.10;;;;;;;17.51;84.67;98614.84;137437;1273;23061;-83
2023/07/04 04:49:23;;;;;;;41.90;16.40;;;;;;;17.65;84.79;98620.02;137556;1273;22239;-83
2023/07/04 04:52:25;;;;;;;25.80;16.30;;;;;;;17.94;84.84;98620.86;137600;1261;22380;-81
2023/07/04 04:55:28;;;;;;;35.10;15.50;;;;;;;18.17;83.83;98617.89;137603;1273;22278;-82
2023/07/04 04:58:33;;;;;;;19.70;13.90;;;;;;;18.44;83.15;98618.89;137580;1273;22186;-81
2023/07/04 05:01:36;;;;;;;30.80;17.30;;;;;;;18.66;82.71;98617.67;137537;1273;22598;-80
2023/07/04 05:04:39;;;;;;;31.30;16.80;;;;;;;18.93;81.01;98624.59;137518;1273;22200;-82
2023/07/04 05:07:41;;;;;;;26.70;15.90;;;;;;;19.27;76.36;98624.80;137575;1273;22217;-80
2023/07/04 05:10:45;;;;;;;32.50;17.00;;;;;;;19.51;73.85;98626.27;137280;1273;22247;-81
2023/07/04 05:13:48;;;;;;;110.90;20.40;;;;;;;19.73;73.22;98624.45;137532;1272;22327;-82
2023/07/04 05:16:50;;;;;;;33.30;17.90;;;;;;;20.08;71.52;98627.86;137419;1273;22532;-82
2023/07/04 05:19:53;;;;;;;32.80;16.10;;;;;;;20.20;70.02;98629.44;137541;1269;22539;-82
2023/07/04 05:22:56;;;;;;;39.10;23.70;;;;;;;20.18;69.31;98628.28;137542;1272;22345;-80
2023/07/04 05:25:58;;;;;;;34.90;17.20;;;;;;;20.26;68.82;98629.60;137556;1272;22266;-81
2023/07/04 05:29:03;;;;;;;34.90;16.70;;;;;;;20.42;68.31;98630.91;137528;1272;22183;-82
2023/07/04 05:32:05;;;;;;;32.90;17.40;;;;;;;20.60;68.22;98631.42;137566;1272;22256;-82
2023/07/04 05:35:08;;;;;;;26.30;16.80;;;;;;;20.79;67.71;98629.02;137440;1273;22253;-83
2023/07/04 05:38:10;;;;;;;29.70;15.50;;;;;;;20.90;67.92;98630.27;137473;1273;22265;-82
2023/07/04 05:41:15;;;;;;;86.50;20.40;;;;;;;20.95;67.08;98635.23;137572;1273;22206;-74
2023/07/04 05:44:19;;;;;;;41.40;17.00;;;;;;;21.02;67.23;98637.48;137538;1273;22687;-81
2023/07/04 05:47:22;;;;;;;27.50;16.00;;;;;;;21.09;66.72;98638.85;137328;1273;22237;-82
2023/07/04 05:50:25;;;;;;;27.70;15.50;;;;;;;21.11;67.37;98637.02;137344;1272;247627;-81
2023/07/04 05:53:27;;;;;;;21.10;15.10;;;;;;;21.07;65.56;98638.71;137570;1273;22330;-81
2023/07/04 05:56:30;;;;;;;25.10;16.00;;;;;;;21.10;64.78;98639.89;137504;1273;22348;-82
2023/07/04 05:59:33;;;;;;;20.60;14.00;;;;;;;21.30;64.74;98643.80;137368;1273;22049;-83
2023/07/04 06:02:39;;;;;;;24.00;15.30;;;;;;;21.46;63.71;98642.20;137560;1273;22177;-82
2023/07/04 06:05:42;;;;;;;27.10;15.90;;;;;;;21.63;63.55;98645.48;137567;1269;22226;-83
2023/07/04 06:08:44;;;;;;;24.80;17.20;;;;;;;21.99;63.07;98644.34;137498;1273;22275;-82
2023/07/04 06:11:48;;;;;;;29.10;18.60;;;;;;;22.42;61.67;98648.41;137537;1273;22851;-82
2023/07/04 06:14:51;;;;;;;36.90;19.50;;;;;;;22.86;60.65;98650.23;137452;1272;22507;-83
2023/07/04 06:17:54;;;;;;;25.50;16.40;;;;;;;23.25;58.77;98656.59;137377;1273;22249;-85
2023/07/04 06:20:56;;;;;;;26.80;16.10;;;;;;;23.15;57.68;98660.94;137501;1272;22241;-82
2023/07/04 06:23:59;;;;;;;43.00;23.70;;;;;;;23.49;57.51;98663.42;137584;1272;22205;-83
2023/07/04 06:27:01;;;;;;;37.30;15.60;;;;;;;23.95;56.80;98668.34;137506;1272;22248;-83
2023/07/04 06:30:04;;;;;;;22.10;14.50;;;;;;;24.28;55.56;98667.92;137415;1272;22392;-83
2023/07/04 06:33:07;;;;;;;22.10;13.90;;;;;;;24.58;54.52;98664.59;137540;1272;22354;-84
2023/07/04 06:36:09;;;;;;;28.50;13.70;;;;;;;24.75;53.31;98664.98;137530;1272;22355;-84
2023/07/04 06:39:12;;;;;;;42.10;25.00;;;;;;;24.91;52.32;98659.59;137492;1272;22514;-83
2023/07/04 06:42:15;;;;;;;24.80;13.40;;;;;;;25.12;51.62;98664.07;137549;1272;22854;-83
2023/07/04 06:45:19;;;;;;;21.80;12.70;;;;;;;25.38;50.22;98666.20;137519;1272;22315;-84
2023/07/04 06:48:22;;;;;;;21.30;11.20;;;;;;;25.63;49.17;98668.27;137379;1272;22218;-84
2023/07/04 06:51:29;;;;;;;16.80;11.70;;;;;;;25.68;47.63;98669.83;137480;1272;22206;-84
2023/07/04 06:54:36;;;;;;;15.50;11.00;;;;;;;25.83;47.43;98666.17;137459;1272;22212;-82
2023/07/04 06:57:39;;;;;;;17.90;10.40;;;;;;;26.02;45.90;98666.60;137424;1269;22486;-83
2023/07/04 07:00:50;;;;;;;17.70;10.60;;;;;;;26.09;45.03;98661.97;137231;1272;22593;-81
2023/07/04 07:03:53;;;;;;;17.00;10.30;;;;;;;26.31;44.36;98660.40;137195;1272;22230;-83
2023/07/04 07:06:57;;;;;;;21.80;10.20;;;;;;;26.50;43.78;98660.25;137374;1273;22600;-86
2023/07/04 07:10:00;;;;;;;22.90;11.40;;;;;;;26.51;43.52;98662.01;136888;1272;21999;-83
2023/07/04 07:13:06;;;;;;;16.70;10.20;;;;;;;26.57;43.05;98663.79;137451;1261;23042;-83
2023/07/04 07:16:28;;;;;;;20.80;9.70;;;;;;;26.57;40.55;98661.81;137455;1272;22215;-83
2023/07/04 07:19:30;;;;;;;110.80;15.10;;;;;;;26.51;41.32;98664.14;137541;1272;22266;-83
2023/07/04 07:22:33;;;;;;;20.60;9.40;;;;;;;26.58;40.74;98665.14;137581;1272;22290;-83
2023/07/04 07:25:36;;;;;;;15.00;8.10;;;;;;;26.65;40.40;98669.55;137441;1266;22708;-82
2023/07/04 07:28:40;;;;;;;208.00;23.70;;;;;;;26.70;40.11;98668.80;137359;1266;22588;-84
2023/07/04 07:31:43;;;;;;;25.40;9.90;;;;;;;26.81;40.31;98672.62;137549;1272;22202;-83
2023/07/04 07:34:47;;;;;;;18.80;8.80;;;;;;;27.02;40.45;98673.23;137487;1273;22545;-83
2023/07/04 07:37:50;;;;;;;18.10;8.40;;;;;;;27.19;39.90;98673.16;137451;1273;22211;-84
2023/07/04 07:40:54;;;;;;;14.40;8.60;;;;;;;27.34;39.59;98671.73;137190;1272;22460;-83
2023/07/04 07:43:57;;;;;;;13.60;8.50;;;;;;;27.29;39.19;98675.41;137547;1272;22256;-83
2023/07/04 07:47:00;;;;;;;16.40;9.00;;;;;;;27.40;39.81;98674.98;137462;1272;23147;-81
2023/07/04 07:50:03;;;;;;;20.70;9.80;;;;;;;27.63;38.90;98675.19;137364;1272;22429;-82
2023/07/04 07:53:05;;;;;;;16.60;9.30;;;;;;;27.64;38.49;98672.67;137519;1272;23539;-83
2023/07/04 07:56:08;;;;;;;13.20;8.80;;;;;;;27.63;38.14;98674.15;137194;1272;22501;-80
2023/07/04 07:59:16;;;;;;;17.20;8.30;;;;;;;27.40;37.07;98675.48;137525;1272;22429;-82
2023/07/04 08:02:25;;;;;;;14.80;7.90;;;;;;;27.12;37.60;98669.65;137475;1272;22557;-83
2023/07/04 08:05:28;;;;;;;44.80;9.20;;;;;;;27.12;37.88;98672.30;137477;1272;22364;-83
2023/07/04 08:08:31;;;;;;;18.70;8.20;;;;;;;27.31;37.72;98671.92;137312;1273;22230;-81
2023/07/04 08:11:34;;;;;;;14.70;7.80;;;;;;;27.46;36.78;98671.35;137414;1273;22385;-83
2023/07/04 08:14:38;;;;;;;14.60;7.30;;;;;;;27.64;36.76;98670.86;137426;1272;22400;-83
2023/07/04 08:17:40;;;;;;;34.40;11.50;;;;;;;28.01;35.92;98668.66;137340;1273;22302;-82
2023/07/04 08:20:43;;;;;;;13.80;7.70;;;;;;;27.99;35.54;98667.13;137422;1269;22265;-83
2023/07/04 08:23:46;;;;;;;14.30;7.30;;;;;;;27.80;35.52;98666.70;137458;1272;22242;-82
2023/07/04 08:26:49;;;;;;;13.70;7.50;;;;;;;27.65;35.99;98663.80;137485;1272;22251;-84
2023/07/04 08:29:52;;;;;;;10.70;6.90;;;;;;;27.80;36.20;98665.10;137378;1272;22966;-83
2023/07/04 08:32:55;;;;;;;14.10;6.50;;;;;;;27.98;35.90;98668.25;137428;1272;22237;-82
2023/07/04 08:35:58;;;;;;;19.10;7.50;;;;;;;27.83;35.34;98669.52;137484;1272;22312;-84
2023/07/04 08:39:00;;;;;;;12.80;7.50;;;;;;;27.80;35.26;98670.95;137385;1272;22269;-84
2023/07/04 08:42:03;;;;;;;19.90;7.50;;;;;;;27.92;35.22;98670.79;137362;1272;23595;-84
2023/07/04 08:45:06;;;;;;;13.10;6.70;;;;;;;28.16;35.10;98667.84;137409;1262;22314;-82
2023/07/04 08:48:17;;;;;;;;;;;;;;;28.30;34.91;98672.71;137277;1272;22523;-82
2023/07/04 08:51:20;;;;;;;15.70;6.70;;;;;;;28.47;35.08;98667.88;137215;1272;22409;-82
2023/07/04 08:54:24;;;;;;;;;;;;;;;28.63;35.01;98670.33;137275;1259;22526;-83
2023/07/04 08:57:27;;;;;;;19.20;7.60;;;;;;;28.83;34.21;98667.02;137449;1273;22197;-83
2023/07/04 09:00:32;;;;;;;12.50;6.60;;;;;;;28.90;33.68;98666.05;137535;1266;22276;-84
2023/07/04 09:03:35;;;;;;;83.00;13.30;;;;;;;28.80;33.45;98664.67;137504;1269;22203;-83
